Terminal Aerodrome Forecast
Issued by NWS

Home | Current Version | Previous Version | Text Only | Print | Product List | Glossary On
Versions: 1 2 3 4 5 6 7 8 9 10 11 12 13 14 15 16 17 18 19 20 21 22
000
FTUS42 KFFC 291948 AAA
TAFFTY
TAF AMD
KFTY 291948Z 2920/3018 17008G16KT P6SM VCSH BKN045 BKN250
     FM300100 15007KT P6SM FEW050 SCT250
     FM301100 15008KT P6SM BKN020
     FM301500 16010G18KT P6SM BKN035=

USA.gov is the U.S. government's official web portal to all federal, state and local government web resources and services.